Grants Pass, OR (97526)

5:54 PM PDT on September 17, 2014 (GMT -0700)
NE Savage | Change Station
CLOSE
Current Station
Personal Weather Station
Location: Grants Pass, OR
Elevation: 1129 ft
Nearby Weather Stations

Elev 1129 ft 42.45 °N, 123.31 °W | Updated 12 minutes ago

Overcast
Overcast
69.4 °F
Feels Like 69.4 °F
N
2.0
Wind Variable Wind from WNW
Gusts 6.0 mph

Today
High -- | Low -- °F
--% Chance of Precip.
Yesterday
High -- | Low -- °F
Precip. -- in
6:55 AM 7:19 PM
Waning Crescent, 31% visible
Pressure 29.68 in
Visibility 4.0 miles
Clouds Scattered Clouds 9000 ft
Dew Point 50 °F
Humidity 50%
Rainfall 0.00 in
Snow Depth 0 in , 0 in , 0 in
UV 1 out of 12
Pollen 4.20 out of 12
Air Quality Not available.
Flu Activity Not available.
SPECI KMFR 180024Z 31008KT 4SM FU SCT090 26/06 A2968 RMK AO2 FU ALQDS T02560061

More Conditions Fewer Conditions

Pressure 29.68 in
Visibility 4.0 miles
Clouds Scattered Clouds 9000 ft
Dew Point 50 °F
Humidity 50%
Rainfall 0.00 in
Snow Depth 0 in , 0 in , 0 in
UV 1 out of 12
Pollen 4.20 out of 12
Air Quality Not available.
Flu Activity Not available.
SPECI KMFR 180024Z 31008KT 4SM FU SCT090 26/06 A2968 RMK AO2 FU ALQDS T02560061

More Conditions Fewer Conditions

10-Day Weather Forecast

Almanac

Astronomy

Sep. 17, 2014 Rise Set
Actual Time 6:55 AM PDT 7:19 PM PDT
Civil Twilight 6:27 AM PDT 7:47 PM PDT
Nautical Twilight 5:54 AM PDT 8:20 PM PDT
Astronomical Twilight 5:19 AM PDT 8:54 PM PDT
Moon 12:55 AM PDT (9/17) 3:38 PM PDT (9/17)
Length of Visible Light 13h 20m
Length of Day
12h 23m
Tomorrow will be 2m 51s shorter.
Waning Crescent, 31% of the Moon is Illuminated
Today
Waning Crescent
Sep 24
New
Oct 1
First Quarter
Oct 8
Full
Oct 15
Last Quarter

Today's Extremes

State Highs State Lows

Community

WunderPhotos

Upload Photos

1,754,224 photos uploaded!

Nearby

Snow Depth

Station Depth Elevation
Fish Lake 0 in 4665 ft
Blue Mountain Spring 0 in 5900 ft
Irish Taylor 0 in 5500 ft
Holland Meadows 1 in 4900 ft
Santiam Junction 0 in 3750 ft

Earthquake Activity

City Distance Mag. Time & Date
No recent earthquake activity has been reported nearby.
Minimum magnitude displayed is 2.5.

Coastal Water Temperatures

Place Temperature
No Stations Reporting

Nearby Weather Stations